Skip Navigation Links Skip Navigation Links

Current Weather

Tipton, Fort Meade(Odenton), Md.

For information only: do not use for flight planning or navigation.
Latest weather
Observation time Wednesday, December 2, 2020 10:55 PM EST
Local time Wednesday, December 2, 2020 11:22 PM EST
Flight conditions Visual Meteorological Conditions
Winds
Wind direction West (270°)
Wind speed 6 mph
Visibility 10 mi.
Sky condition
Ceiling unlimited
Sky clear
Temperature 32°F
Dewpoint 27°F
Altimeter 30.26 in.Hg
Derived measurements
Relative humidity 80%
Wind chill 26°F
Density altitude -1998 ft.
Remarks
Fully automated report.
Automated weather observing station without precipitation discriminator.
METAR KFME 030355Z AUTO 27005KT 10SM CLR 00/M03 A3026 RMK AO1

Settings

Location code

InnerDrive.Weather 4.0.6770.0 Release CLR 4.0.30319.42000
Copyright ©2018 Inner Drive Technology. All rights reserved. Portions Copyright ©1986-2018 David Braverman.

Find weather

Site navigation


Skip Navigation Links

Place info

Page info

PayPal - The safer, easier way to pay online!

Return home.

Copyright ©2020 Inner Drive Technology. Purveyors of fine, hand-crafted computer software. Page printed 2020-12-03T04:22:23 UTC.